Time;durP1;ratioP1;P1;durP2;ratioP2;P2;SDS_P1;SDS_P2;PMS_P1;PMS_P2;Temp;Humidity;BMP_temperature;BMP_pressure;BME280_temperature;BME280_humidity;BME280_pressure;Samples;Min_cycle;Max_cycle;Signal;HPM_P1;HPM_P2
2021/08/01 00:00:33;;;;;;;11.47;7.33;;;;;;;15.50;90.26;98406.41;10501582;28;20202;-73
2021/08/01 00:05:52;;;;;;;12.03;8.93;;;;;;;15.43;91.57;98403.88;10503001;28;20171;-73
2021/08/01 00:11:11;;;;;;;15.87;10.07;;;;;;;15.35;92.77;98410.88;10501391;28;20179;-74
2021/08/01 00:16:30;;;;;;;12.50;7.70;;;;;;;15.36;93.53;98390.25;10501167;28;20531;-74
2021/08/01 00:21:49;;;;;;;12.37;7.87;;;;;;;15.48;91.78;98373.59;10501839;28;20239;-73
2021/08/01 00:27:09;;;;;;;9.47;7.63;;;;;;;15.52;91.60;98376.22;10464794;28;20195;-73
2021/08/01 00:32:28;;;;;;;11.00;7.97;;;;;;;15.53;90.60;98375.00;10459326;28;20191;-74
2021/08/01 00:37:47;;;;;;;10.63;6.97;;;;;;;15.61;90.12;98371.53;10458883;28;20223;-73
2021/08/01 00:43:06;;;;;;;15.83;7.23;;;;;;;15.77;90.60;98382.44;10460161;28;20532;-74
2021/08/01 00:48:26;;;;;;;7.90;6.67;;;;;;;15.66;93.07;98384.06;10458679;28;20176;-73
2021/08/01 00:53:45;;;;;;;7.43;6.73;;;;;;;15.43;93.24;98374.13;10475142;28;20176;-73
2021/08/01 00:59:04;;;;;;;7.53;6.77;;;;;;;15.34;94.21;98387.94;10459284;28;20219;-73
2021/08/01 01:04:34;;;;;;;11.13;7.80;;;;;;;15.43;94.46;98376.16;10458201;28;20179;-74
2021/08/01 01:10:00;;;;;;;11.07;6.70;;;;;;;15.33;94.82;98386.38;10458162;28;20183;-72
2021/08/01 01:15:25;;;;;;;12.53;6.20;;;;;;;15.46;94.13;98367.72;10456413;28;20168;-73
2021/08/01 01:21:03;;;;;;;7.33;6.30;;;;;;;15.37;95.87;98370.38;10458133;28;20238;-73
2021/08/01 01:26:47;;;;;;;8.87;6.47;;;;;;;15.32;94.70;98368.19;10484422;28;20179;-73
2021/08/01 01:32:10;;;;;;;6.90;6.30;;;;;;;15.23;96.18;98375.59;10497435;28;20191;-73
2021/08/01 01:37:31;;;;;;;7.07;6.47;;;;;;;15.31;95.56;98376.94;10498978;28;20294;-73
2021/08/01 01:42:53;;;;;;;6.67;6.00;;;;;;;15.42;95.60;98367.06;10499131;28;20178;-73
2021/08/01 01:48:12;;;;;;;7.93;5.83;;;;;;;15.30;97.16;98365.09;10497563;28;20262;-73
2021/08/01 01:53:33;;;;;;;12.03;6.00;;;;;;;15.38;96.82;98357.31;10494385;28;20209;-73
2021/08/01 01:58:53;;;;;;;13.13;6.47;;;;;;;15.35;98.80;98360.97;10498028;28;20210;-74
2021/08/01 02:04:12;;;;;;;9.37;6.90;;;;;;;15.38;99.25;98360.84;10497229;28;20553;-73
2021/08/01 02:09:43;;;;;;;7.03;6.00;;;;;;;15.34;98.09;98353.88;10497313;28;20174;-74
2021/08/01 02:15:07;;;;;;;8.87;6.80;;;;;;;15.25;98.59;98359.34;10495727;28;20171;-73
2021/08/01 02:20:39;;;;;;;9.80;6.90;;;;;;;15.22;98.75;98354.69;10496600;28;20215;-73
2021/08/01 02:25:58;;;;;;;11.93;7.80;;;;;;;15.31;97.08;98358.34;10470218;28;20587;-73
2021/08/01 02:31:19;;;;;;;12.13;6.23;;;;;;;15.35;96.50;98355.44;10455037;28;20543;-73
2021/08/01 02:36:38;;;;;;;10.40;7.10;;;;;;;15.13;98.76;98366.44;10454923;28;20230;-73
2021/08/01 02:42:01;;;;;;;9.33;6.80;;;;;;;15.05;100.00;98360.78;10455087;28;20235;-73
2021/08/01 02:47:23;;;;;;;20.27;8.10;;;;;;;15.08;100.00;98368.22;10454739;28;20262;-73
2021/08/01 02:52:55;;;;;;;13.23;7.63;;;;;;;15.07;100.00;98350.81;10455801;28;20198;-72
2021/08/01 02:58:17;;;;;;;13.13;7.90;;;;;;;15.13;100.00;98362.09;10454503;28;20206;-72
2021/08/01 03:03:40;;;;;;;10.27;7.30;;;;;;;15.03;100.00;98360.47;10454268;28;20258;-73
2021/08/01 03:09:03;;;;;;;8.73;7.57;;;;;;;14.99;100.00;98348.72;10455615;28;20534;-73
2021/08/01 03:14:22;;;;;;;8.77;6.87;;;;;;;14.99;100.00;98351.50;10454263;28;20171;-72
2021/08/01 03:19:41;;;;;;;10.77;7.20;;;;;;;15.16;100.00;98353.69;10454951;28;20616;-73
2021/08/01 03:25:01;;;;;;;8.50;6.97;;;;;;;15.07;100.00;98355.59;10476455;28;20175;-73
2021/08/01 03:30:20;;;;;;;9.60;7.80;;;;;;;15.01;100.00;98357.38;10495209;28;20580;-74
2021/08/01 03:35:39;;;;;;;9.13;7.10;;;;;;;15.00;100.00;98355.81;10496389;28;20685;-74
2021/08/01 03:40:57;;;;;;;10.87;7.13;;;;;;;14.91;100.00;98358.50;10494707;28;20270;-74
2021/08/01 03:46:16;;;;;;;9.73;7.77;;;;;;;14.87;100.00;98358.63;10497306;28;20183;-75
2021/08/01 03:51:35;;;;;;;8.80;6.70;;;;;;;14.97;100.00;98356.72;10502477;28;20218;-74
2021/08/01 03:56:54;;;;;;;6.53;5.90;;;;;;;14.84;100.00;98361.50;10464952;28;20187;-74
2021/08/01 04:02:13;;;;;;;12.50;7.07;;;;;;;14.75;100.00;98361.38;10459889;28;20282;-74
2021/08/01 04:07:32;;;;;;;14.10;6.87;;;;;;;14.81;100.00;98351.28;10461555;28;20183;-74
2021/08/01 04:12:51;;;;;;;7.23;6.63;;;;;;;14.84;100.00;98344.88;10461354;28;20171;-75
2021/08/01 04:18:10;;;;;;;7.57;6.87;;;;;;;14.84;100.00;98339.34;10459690;28;20566;-75
2021/08/01 04:23:29;;;;;;;10.27;6.77;;;;;;;14.79;100.00;98339.88;10469185;28;20547;-75
2021/08/01 04:28:48;;;;;;;6.50;5.90;;;;;;;14.91;100.00;98342.66;10502107;28;20175;-74
2021/08/01 04:34:07;;;;;;;10.53;6.67;;;;;;;14.88;100.00;98345.53;10499765;28;20194;-75
2021/08/01 04:39:26;;;;;;;6.80;6.30;;;;;;;14.92;100.00;98360.06;10500400;28;20223;-75
2021/08/01 04:44:45;;;;;;;10.00;5.90;;;;;;;14.84;100.00;98361.50;10499302;28;20581;-74
2021/08/01 04:50:05;;;;;;;7.73;6.17;;;;;;;14.92;100.00;98360.06;10501344;28;20179;-75
2021/08/01 04:55:24;;;;;;;7.30;6.60;;;;;;;14.82;100.00;98366.69;10474268;28;20183;-77
2021/08/01 05:00:43;;;;;;;6.67;6.00;;;;;;;14.70;100.00;98371.03;10457960;28;20199;-76
2021/08/01 05:06:02;;;;;;;9.10;6.60;;;;;;;14.76;100.00;98374.03;10459083;28;20668;-77
2021/08/01 05:11:21;;;;;;;7.23;6.50;;;;;;;14.83;100.00;98368.25;10459142;28;20183;-76
2021/08/01 05:16:41;;;;;;;6.57;5.97;;;;;;;14.72;100.00;98378.88;10457584;28;20657;-76
2021/08/01 05:22:00;;;;;;;7.40;6.60;;;;;;;14.81;100.00;98379.78;10460409;28;20210;-75
2021/08/01 05:27:19;;;;;;;7.17;6.37;;;;;;;14.88;100.00;98387.84;10491797;28;20179;-75
2021/08/01 05:32:38;;;;;;;8.57;6.10;;;;;;;14.88;100.00;98387.84;10457791;28;20206;-76
2021/08/01 05:37:57;;;;;;;7.70;7.00;;;;;;;14.95;100.00;98389.59;10468627;28;20583;-76
2021/08/01 05:43:16;;;;;;;9.57;7.10;;;;;;;14.91;100.00;98384.19;10456841;28;20197;-75
2021/08/01 05:48:35;;;;;;;6.60;6.10;;;;;;;15.09;100.00;98381.63;10470476;28;20178;-76
2021/08/01 05:53:54;;;;;;;11.77;7.07;;;;;;;15.11;100.00;98384.72;10479345;28;20179;-75
2021/08/01 05:59:13;;;;;;;7.03;6.43;;;;;;;15.16;100.00;98382.19;10456023;28;20206;-76
2021/08/01 06:04:32;;;;;;;9.53;7.03;;;;;;;15.22;100.00;98391.47;10459132;28;20277;-76
2021/08/01 06:09:51;;;;;;;7.67;6.83;;;;;;;15.25;100.00;98395.38;10455661;28;20234;-75
2021/08/01 06:15:10;;;;;;;8.03;7.30;;;;;;;15.28;100.00;98392.47;10454440;28;20183;-75
2021/08/01 06:20:30;;;;;;;10.60;7.80;;;;;;;15.33;100.00;98391.94;10454992;28;20645;-75
2021/08/01 06:25:49;;;;;;;8.17;7.47;;;;;;;15.37;100.00;98400.88;10481578;28;20186;-76
2021/08/01 06:31:09;;;;;;;10.77;7.80;;;;;;;15.63;100.00;98399.59;10496368;28;20191;-76
2021/08/01 06:36:28;;;;;;;10.67;7.33;;;;;;;15.60;100.00;98408.78;10496550;28;20167;-74
2021/08/01 06:41:47;;;;;;;10.00;8.40;;;;;;;15.80;100.00;98414.06;10492888;28;20214;-73
2021/08/01 06:47:06;;;;;;;8.30;7.53;;;;;;;16.00;100.00;98410.53;10488523;28;20183;-74
2021/08/01 06:52:25;;;;;;;8.43;7.63;;;;;;;16.14;100.00;98410.00;10478111;28;20273;-76
2021/08/01 06:57:44;;;;;;;12.60;8.10;;;;;;;16.32;100.00;98415.72;10497092;28;20711;-76
2021/08/01 07:03:03;;;;;;;8.73;7.93;;;;;;;16.28;100.00;98417.03;10494770;28;20534;-76
2021/08/01 07:08:23;;;;;;;9.50;8.60;;;;;;;16.01;100.00;98422.41;10497047;28;20625;-75
2021/08/01 07:13:42;;;;;;;10.83;7.60;;;;;;;16.01;100.00;98431.50;10496800;28;20178;-75
2021/08/01 07:19:01;;;;;;;9.10;8.07;;;;;;;15.75;100.00;98431.28;10478558;28;20207;-75
2021/08/01 07:24:20;;;;;;;9.47;8.13;;;;;;;15.72;100.00;98424.63;10462470;28;20215;-75
2021/08/01 07:29:39;;;;;;;9.90;8.30;;;;;;;15.71;100.00;98434.16;10461833;28;20622;-75
2021/08/01 07:34:58;;;;;;;8.90;7.50;;;;;;;15.82;100.00;98436.56;10461839;28;20227;-74
2021/08/01 07:40:17;;;;;;;7.60;7.00;;;;;;;15.73;100.00;98431.72;10462207;28;20259;-76
2021/08/01 07:45:36;;;;;;;8.53;7.83;;;;;;;16.00;100.00;98435.50;10460236;28;20211;-75
2021/08/01 07:50:55;;;;;;;9.90;7.17;;;;;;;15.99;100.00;98436.72;10492850;28;20190;-75
2021/08/01 07:56:14;;;;;;;7.33;5.83;;;;;;;16.04;100.00;98443.69;10502527;28;20528;-75
2021/08/01 08:01:32;;;;;;;7.20;6.60;;;;;;;15.97;100.00;98436.41;10500535;28;20783;-76
2021/08/01 08:06:52;;;;;;;8.77;6.50;;;;;;;16.28;100.00;98440.00;10503035;28;20333;-75
2021/08/01 08:12:11;;;;;;;10.87;6.77;;;;;;;16.60;100.00;98445.19;10502775;28;20174;-77
2021/08/01 08:17:33;;;;;;;9.93;6.60;;;;;;;16.96;100.00;98434.25;10494777;28;20175;-76
2021/08/01 08:22:52;;;;;;;6.53;5.90;;;;;;;17.47;100.00;98425.03;10499481;28;20218;-76
2021/08/01 08:28:11;;;;;;;6.30;5.80;;;;;;;18.59;100.00;98432.00;10499495;28;20186;-76
2021/08/01 08:33:30;;;;;;;15.03;5.90;;;;;;;18.64;94.06;98428.59;10499461;28;20191;-76
2021/08/01 08:38:48;;;;;;;5.20;4.70;;;;;;;19.17;88.61;98436.00;10501417;28;20222;-77
2021/08/01 08:44:08;;;;;;;6.00;5.50;;;;;;;18.56;92.00;98432.94;10499990;28;20633;-76
2021/08/01 08:49:28;;;;;;;7.30;5.70;;;;;;;19.05;89.02;98425.03;10498687;28;20182;-77
2021/08/01 08:54:49;;;;;;;7.00;6.00;;;;;;;18.89;91.58;98428.19;10501437;28;20171;-77
2021/08/01 09:00:10;;;;;;;6.70;6.00;;;;;;;19.30;89.91;98431.00;10499294;28;20203;-75
2021/08/01 09:05:31;;;;;;;9.20;5.60;;;;;;;19.81;84.22;98420.44;10500735;28;20175;-75
2021/08/01 09:10:50;;;;;;;6.30;5.70;;;;;;;19.97;82.46;98434.78;10499548;28;20191;-74
2021/08/01 09:16:10;;;;;;;5.77;5.27;;;;;;;20.07;79.69;98425.84;10496145;28;20637;-74
2021/08/01 09:21:31;;;;;;;5.83;4.07;;;;;;;20.12;76.95;98419.59;10498710;28;20206;-74
2021/08/01 09:26:51;;;;;;;5.40;4.97;;;;;;;20.08;78.51;98424.59;10499857;28;20179;-74
2021/08/01 09:32:09;;;;;;;6.77;4.77;;;;;;;20.32;77.26;98428.09;10498354;28;20285;-74
2021/08/01 09:37:33;;;;;;;4.07;3.67;;;;;;;20.82;75.14;98440.19;10461000;28;20207;-74
2021/08/01 09:42:52;;;;;;;7.40;3.57;;;;;;;20.03;72.00;98437.69;10456209;28;20195;-74
2021/08/01 09:48:17;;;;;;;4.43;4.13;;;;;;;20.42;71.64;98432.38;10457428;28;20199;-75
2021/08/01 09:53:37;;;;;;;4.90;4.50;;;;;;;21.89;70.10;98428.34;10480900;28;20610;-74
2021/08/01 09:58:56;;;;;;;4.67;4.33;;;;;;;21.89;70.95;98441.59;10498458;28;20202;-74
2021/08/01 10:04:29;;;;;;;9.53;4.97;;;;;;;21.95;68.28;98434.03;10477020;28;20183;-73
2021/08/01 10:09:49;;;;;;;6.00;4.00;;;;;;;21.88;65.96;98414.84;10497314;28;20178;-74
2021/08/01 10:15:08;;;;;;;5.00;4.50;;;;;;;20.95;71.38;98416.28;10495727;28;20175;-73
2021/08/01 10:20:29;;;;;;;5.67;4.27;;;;;;;22.12;68.81;98418.97;10497675;28;20206;-74
2021/08/01 10:25:50;;;;;;;6.80;4.37;;;;;;;21.83;65.48;98427.50;10496763;28;20174;-75
2021/08/01 10:31:12;;;;;;;6.10;3.93;;;;;;;21.00;68.97;98421.97;10495422;28;20195;-75
2021/08/01 10:36:34;;;;;;;4.97;4.57;;;;;;;21.36;67.05;98412.31;10475776;28;20660;-74
2021/08/01 10:41:54;;;;;;;8.80;4.37;;;;;;;21.44;66.60;98407.84;10483074;28;20265;-74
2021/08/01 10:47:13;;;;;;;4.37;4.07;;;;;;;21.08;70.12;98408.34;10480342;28;20194;-75
2021/08/01 10:52:35;;;;;;;4.80;4.47;;;;;;;21.47;64.67;98393.66;10477147;28;20183;-75
2021/08/01 10:58:14;;;;;;;4.87;4.40;;;;;;;21.72;64.37;98393.78;10477456;28;20679;-74
2021/08/01 11:03:35;;;;;;;4.93;4.40;;;;;;;21.51;66.32;98390.66;10478607;28;20195;-74
2021/08/01 11:09:14;;;;;;;3.83;3.63;;;;;;;21.02;68.29;98390.69;10505318;28;20261;-74
2021/08/01 11:14:50;;;;;;;6.53;4.63;;;;;;;21.18;67.35;98398.56;10485522;28;20229;-75
2021/08/01 11:20:15;;;;;;;5.57;4.50;;;;;;;21.04;68.18;98388.19;10487487;28;20218;-74
2021/08/01 11:25:37;;;;;;;5.27;4.20;;;;;;;21.37;66.12;98372.66;10484760;28;20313;-74
2021/08/01 11:30:56;;;;;;;4.20;3.90;;;;;;;21.64;65.33;98368.72;10462920;28;20609;-74
2021/08/01 11:36:18;;;;;;;4.10;3.80;;;;;;;23.00;58.14;98361.69;10476672;28;20179;-75
2021/08/01 11:41:39;;;;;;;4.70;3.10;;;;;;;23.54;58.05;98371.78;10488324;28;20230;-74
2021/08/01 11:47:04;;;;;;;4.50;4.20;;;;;;;22.68;59.25;98371.41;10481065;28;20254;-74
2021/08/01 11:52:34;;;;;;;4.47;4.07;;;;;;;22.62;60.02;98364.97;10462048;28;20176;-74
2021/08/01 11:57:53;;;;;;;5.70;4.70;;;;;;;23.18;58.46;98371.81;10474286;28;20183;-75
2021/08/01 12:03:13;;;;;;;5.60;4.00;;;;;;;23.09;58.09;98364.34;10478232;28;20199;-74
2021/08/01 12:08:36;;;;;;;4.30;3.93;;;;;;;22.23;58.53;98363.03;10472431;28;20439;-74
2021/08/01 12:14:05;;;;;;;5.50;4.23;;;;;;;22.66;60.73;98353.53;10476748;28;20552;-74
2021/08/01 12:19:30;;;;;;;5.80;4.50;;;;;;;22.97;56.85;98350.72;10466962;28;20290;-74
2021/08/01 12:24:57;;;;;;;4.10;3.80;;;;;;;22.40;58.64;98352.03;10464351;28;20175;-75
2021/08/01 12:30:20;;;;;;;3.97;3.77;;;;;;;22.20;59.17;98341.63;10484978;28;20210;-74
2021/08/01 12:35:39;;;;;;;3.87;3.67;;;;;;;22.65;56.08;98344.38;10488935;28;20187;-75
2021/08/01 12:41:12;;;;;;;4.20;3.90;;;;;;;24.29;52.83;98330.41;10465926;28;20697;-74
2021/08/01 12:46:31;;;;;;;4.07;3.80;;;;;;;25.24;45.75;98330.69;10458082;28;20209;-75
2021/08/01 12:51:50;;;;;;;3.67;3.47;;;;;;;23.97;52.14;98342.34;10459741;28;20301;-75
2021/08/01 12:57:10;;;;;;;3.70;3.40;;;;;;;24.60;51.17;98325.34;10514737;28;20644;-74
2021/08/01 13:02:29;;;;;;;4.20;3.80;;;;;;;24.67;51.26;98332.50;10504323;28;20214;-74
2021/08/01 13:07:48;;;;;;;4.23;3.80;;;;;;;24.82;47.29;98322.53;10482609;28;20219;-75
2021/08/01 13:13:18;;;;;;;3.50;3.30;;;;;;;25.05;46.19;98324.03;10522418;28;20181;-75
2021/08/01 13:18:37;;;;;;;4.47;3.13;;;;;;;25.65;42.74;98332.34;10532590;28;20218;-75
2021/08/01 13:24:08;;;;;;;3.30;3.00;;;;;;;24.87;46.48;98326.63;10512335;28;20182;-74
2021/08/01 13:29:29;;;;;;;3.10;2.90;;;;;;;26.00;45.65;98307.84;10521296;28;20294;-74
2021/08/01 13:34:50;;;;;;;5.57;3.07;;;;;;;25.17;44.09;98322.75;10498389;28;20625;-74
2021/08/01 13:40:09;;;;;;;4.00;2.90;;;;;;;24.83;45.23;98320.47;10534704;28;20724;-76
2021/08/01 13:45:28;;;;;;;2.93;2.73;;;;;;;24.34;48.51;98324.81;10539399;28;20171;-74
2021/08/01 13:50:47;;;;;;;2.87;2.67;;;;;;;24.24;48.76;98339.59;10519642;28;20212;-75
2021/08/01 13:56:06;;;;;;;3.10;2.70;;;;;;;24.76;49.02;98323.81;10491607;28;20233;-74
2021/08/01 14:01:26;;;;;;;2.80;2.60;;;;;;;25.27;45.03;98321.19;10483481;28;20218;-74
2021/08/01 14:06:45;;;;;;;2.40;2.30;;;;;;;25.50;45.36;98340.34;10482985;28;20588;-75
2021/08/01 14:12:04;;;;;;;2.60;2.40;;;;;;;26.42;40.88;98327.09;10489871;28;20174;-74
2021/08/01 14:17:23;;;;;;;4.97;2.60;;;;;;;26.54;41.67;98310.84;10453933;28;20199;-74
2021/08/01 14:22:43;;;;;;;2.33;2.13;;;;;;;25.94;40.44;98315.59;10454521;28;20237;-74
2021/08/01 14:28:03;;;;;;;2.20;2.10;;;;;;;26.26;41.61;98313.06;10472788;28;20197;-74
2021/08/01 14:33:26;;;;;;;2.40;2.20;;;;;;;26.18;42.29;98309.28;10536609;28;20608;-74
2021/08/01 14:38:45;;;;;;;3.57;2.60;;;;;;;26.63;42.34;98297.97;10538483;28;20226;-74
2021/08/01 14:44:06;;;;;;;2.33;2.13;;;;;;;25.94;40.27;98304.31;10537080;28;20626;-74
2021/08/01 14:49:30;;;;;;;7.93;2.70;;;;;;;26.47;43.30;98294.50;10516325;28;20186;-75
2021/08/01 14:54:49;;;;;;;2.43;2.13;;;;;;;26.35;40.82;98298.66;10497032;28;20249;-75
2021/08/01 15:00:11;;;;;;;2.50;2.30;;;;;;;25.66;40.22;98304.94;10487737;28;20222;-75
2021/08/01 15:05:50;;;;;;;2.37;2.17;;;;;;;25.01;42.72;98313.03;10483472;28;20190;-75
2021/08/01 15:11:21;;;;;;;2.80;2.60;;;;;;;24.60;44.62;98311.28;10495740;28;20182;-75
2021/08/01 15:16:43;;;;;;;2.30;2.10;;;;;;;25.63;43.10;98312.38;10459720;28;20188;-75
2021/08/01 15:22:15;;;;;;;2.80;2.40;;;;;;;25.39;41.80;98323.47;10456010;28;20203;-74
2021/08/01 15:27:40;;;;;;;2.33;1.87;;;;;;;25.07;42.11;98332.75;10455168;28;20681;-74
2021/08/01 15:32:59;;;;;;;2.40;2.20;;;;;;;25.07;42.66;98327.13;10452925;28;20179;-75
2021/08/01 15:38:18;;;;;;;4.23;2.20;;;;;;;25.57;42.56;98330.56;10454500;28;20227;-75
2021/08/01 15:43:37;;;;;;;3.37;2.47;;;;;;;25.64;42.02;98324.41;10458305;28;20641;-75
2021/08/01 15:48:56;;;;;;;3.77;2.63;;;;;;;25.62;41.25;98333.38;10476330;28;20182;-75
2021/08/01 15:54:24;;;;;;;1.80;1.67;;;;;;;25.60;41.95;98324.69;10503728;28;20215;-75
2021/08/01 16:00:05;;;;;;;1.70;1.60;;;;;;;25.01;38.79;98329.94;10499792;28;20206;-75
2021/08/01 16:05:28;;;;;;;1.80;1.70;;;;;;;25.32;38.13;98329.63;10469326;28;20187;-75
2021/08/01 16:10:47;;;;;;;1.83;1.73;;;;;;;26.09;37.49;98315.25;10474741;28;20628;-75
2021/08/01 16:16:12;;;;;;;1.90;1.80;;;;;;;26.03;38.38;98322.97;10484681;28;20186;-75
2021/08/01 16:21:34;;;;;;;2.30;2.10;;;;;;;24.44;41.48;98334.53;10464459;28;20207;-74
2021/08/01 16:26:53;;;;;;;2.20;2.10;;;;;;;23.80;45.80;98331.06;10460936;28;20238;-75
2021/08/01 16:32:12;;;;;;;2.73;2.47;;;;;;;22.63;49.11;98332.88;10459667;28;20625;-74
2021/08/01 16:37:31;;;;;;;5.27;2.60;;;;;;;22.03;50.61;98329.47;10460563;28;20179;-74
2021/08/01 16:43:12;;;;;;;3.10;2.30;;;;;;;22.02;50.84;98336.34;10459754;28;20302;-75
2021/08/01 16:48:35;;;;;;;2.70;2.23;;;;;;;22.16;48.62;98349.47;10470223;28;20178;-74
2021/08/01 16:54:06;;;;;;;1.93;1.83;;;;;;;22.00;48.15;98352.88;10501238;28;20178;-74
2021/08/01 16:59:32;;;;;;;4.17;2.17;;;;;;;21.99;48.78;98372.97;10499901;28;20206;-74
2021/08/01 17:04:53;;;;;;;2.80;2.13;;;;;;;21.82;49.05;98369.22;10500951;28;20206;-74
2021/08/01 17:10:13;;;;;;;2.73;2.30;;;;;;;21.93;49.51;98370.09;10485889;28;20270;-74
2021/08/01 17:15:33;;;;;;;2.37;2.07;;;;;;;22.06;49.94;98367.69;10457880;28;20179;-75
2021/08/01 17:20:52;;;;;;;5.77;2.13;;;;;;;22.07;51.18;98371.28;10461205;28;20594;-75
2021/08/01 17:26:12;;;;;;;2.40;1.93;;;;;;;22.06;50.91;98364.91;10457715;28;20183;-74
2021/08/01 17:31:36;;;;;;;4.20;2.17;;;;;;;21.80;52.60;98372.50;10456094;28;20175;-74
2021/08/01 17:36:57;;;;;;;2.00;1.90;;;;;;;21.40;53.57;98393.31;10457142;28;20187;-73
2021/08/01 17:42:22;;;;;;;2.60;2.40;;;;;;;21.27;54.38;98398.47;10457331;28;20227;-73
2021/08/01 17:47:41;;;;;;;2.20;2.00;;;;;;;21.15;55.99;98405.91;10463980;28;20183;-75
2021/08/01 17:53:00;;;;;;;2.73;2.47;;;;;;;21.17;55.83;98411.00;10499010;28;20202;-75
2021/08/01 17:58:22;;;;;;;3.07;2.67;;;;;;;21.14;56.45;98403.63;10498608;28;20547;-74
2021/08/01 18:03:42;;;;;;;2.67;2.47;;;;;;;21.12;56.63;98409.69;10495878;28;20167;-75
2021/08/01 18:09:06;;;;;;;2.80;2.30;;;;;;;21.07;57.18;98401.97;10496503;28;20175;-73
2021/08/01 18:14:48;;;;;;;6.33;2.20;;;;;;;21.08;57.02;98419.56;10497233;28;20269;-74
2021/08/01 18:20:08;;;;;;;2.30;1.90;;;;;;;21.04;57.86;98424.56;10497831;28;20206;-75
2021/08/01 18:25:27;;;;;;;6.00;2.90;;;;;;;20.82;58.66;98429.78;10497975;28;20171;-75
2021/08/01 18:30:47;;;;;;;4.00;2.20;;;;;;;20.69;59.72;98426.47;10494507;28;20206;-75
2021/08/01 18:36:07;;;;;;;3.17;2.47;;;;;;;20.60;60.29;98426.56;10493824;28;20183;-74
2021/08/01 18:41:29;;;;;;;3.30;2.70;;;;;;;20.51;61.29;98435.06;10459906;28;20227;-75
2021/08/01 18:46:48;;;;;;;2.30;2.20;;;;;;;20.23;63.04;98441.38;10493568;28;20539;-75
2021/08/01 18:52:08;;;;;;;3.40;2.67;;;;;;;20.12;63.22;98452.34;10497377;28;20179;-75
2021/08/01 18:57:27;;;;;;;3.00;2.70;;;;;;;19.92;64.92;98445.78;10496291;28;20174;-75
2021/08/01 19:02:47;;;;;;;5.10;2.80;;;;;;;19.85;66.17;98454.53;10495089;28;20210;-74
2021/08/01 19:08:08;;;;;;;2.60;2.40;;;;;;;19.63;67.28;98459.63;10495362;28;20222;-74
2021/08/01 19:13:27;;;;;;;3.10;2.90;;;;;;;19.48;68.44;98465.16;10497046;28;20175;-74
2021/08/01 19:19:04;;;;;;;3.20;3.00;;;;;;;19.26;70.31;98472.97;10501811;28;20202;-75
2021/08/01 19:24:23;;;;;;;3.30;3.10;;;;;;;19.06;70.70;98480.31;10504930;28;20214;-74
2021/08/01 19:29:45;;;;;;;4.00;2.70;;;;;;;19.01;71.77;98480.97;10503343;28;20222;-74
2021/08/01 19:35:09;;;;;;;6.20;3.10;;;;;;;18.92;72.40;98486.56;10504550;28;20648;-75
2021/08/01 19:40:28;;;;;;;4.63;2.93;;;;;;;18.86;73.11;98502.38;10462240;28;20306;-74
2021/08/01 19:45:49;;;;;;;8.30;2.90;;;;;;;18.79;73.51;98502.72;10460423;28;20262;-75
2021/08/01 19:51:08;;;;;;;3.33;3.10;;;;;;;18.58;75.31;98508.47;10461524;28;20195;-74
2021/08/01 19:56:31;;;;;;;4.73;3.20;;;;;;;18.45;76.05;98505.84;10461296;28;20176;-73
2021/08/01 20:01:50;;;;;;;3.90;3.60;;;;;;;18.39;77.32;98506.91;10460307;28;20566;-73
2021/08/01 20:07:10;;;;;;;3.70;3.50;;;;;;;18.30;78.20;98528.44;10461924;28;20180;-74
2021/08/01 20:12:28;;;;;;;3.90;3.37;;;;;;;18.17;79.39;98528.56;10460872;28;20235;-74
2021/08/01 20:17:47;;;;;;;4.30;4.00;;;;;;;18.16;79.78;98543.72;10460188;28;20179;-74
2021/08/01 20:23:06;;;;;;;4.60;4.20;;;;;;;18.05;80.66;98550.97;10461286;28;20649;-73
2021/08/01 20:28:25;;;;;;;4.90;3.40;;;;;;;18.02;81.63;98557.44;10459248;28;20294;-73
2021/08/01 20:33:45;;;;;;;3.77;3.47;;;;;;;18.02;82.10;98561.00;10459500;28;20194;-73
2021/08/01 20:39:04;;;;;;;4.03;3.70;;;;;;;17.91;83.07;98571.81;10459110;28;20227;-75
2021/08/01 20:44:23;;;;;;;3.90;3.70;;;;;;;17.97;83.51;98577.53;10460180;28;20217;-75
2021/08/01 20:49:42;;;;;;;4.73;4.40;;;;;;;17.95;83.47;98577.22;10460262;28;20638;-73
2021/08/01 20:55:01;;;;;;;3.57;3.37;;;;;;;18.01;82.10;98581.72;10460140;28;20559;-75
2021/08/01 21:00:20;;;;;;;10.37;4.50;;;;;;;18.00;83.15;98579.41;10472372;28;20206;-74
2021/08/01 21:05:40;;;;;;;4.60;3.30;;;;;;;17.90;84.53;98586.19;10501245;28;20179;-73
2021/08/01 21:11:00;;;;;;;3.97;3.67;;;;;;;17.77;85.86;98583.50;10459419;28;20176;-74
2021/08/01 21:16:19;;;;;;;5.00;4.50;;;;;;;17.66;87.01;98576.84;10456976;28;20563;-74
2021/08/01 21:21:38;;;;;;;3.93;3.47;;;;;;;17.63;87.57;98581.31;10458507;28;20570;-74
2021/08/01 21:26:57;;;;;;;4.17;3.87;;;;;;;17.40;89.07;98575.47;10458609;28;20203;-74
2021/08/01 21:32:15;;;;;;;6.43;4.23;;;;;;;17.25;90.00;98577.25;10457412;28;20187;-74
2021/08/01 21:37:34;;;;;;;4.20;3.90;;;;;;;17.06;91.42;98586.69;10465981;28;20552;-74
2021/08/01 21:42:53;;;;;;;4.00;3.70;;;;;;;17.06;91.24;98583.91;10456620;28;20202;-75
2021/08/01 21:48:12;;;;;;;4.20;3.90;;;;;;;16.99;91.56;98598.06;10456593;28;20262;-74
2021/08/01 21:53:31;;;;;;;10.73;4.50;;;;;;;16.97;92.11;98603.31;10457788;28;20172;-74
2021/08/01 21:58:50;;;;;;;4.57;4.00;;;;;;;16.96;91.90;98609.31;10457430;28;20661;-74
2021/08/01 22:04:09;;;;;;;4.70;4.03;;;;;;;16.88;91.62;98606.00;10455928;28;20175;-74
2021/08/01 22:09:32;;;;;;;4.20;3.80;;;;;;;16.87;90.81;98623.16;10488629;28;20182;-74
2021/08/01 22:14:50;;;;;;;4.10;3.90;;;;;;;16.80;91.29;98615.84;10495974;28;20191;-74
2021/08/01 22:20:10;;;;;;;4.90;3.30;;;;;;;16.69;90.90;98633.34;10496637;28;20206;-74
2021/08/01 22:25:30;;;;;;;3.40;3.20;;;;;;;16.77;89.31;98624.28;10498062;28;20644;-74
2021/08/01 22:30:53;;;;;;;3.83;3.50;;;;;;;16.75;87.69;98623.19;10496884;28;20253;-74
2021/08/01 22:36:13;;;;;;;4.90;3.50;;;;;;;16.73;87.02;98628.44;10491260;28;20187;-74
2021/08/01 22:41:32;;;;;;;3.37;2.37;;;;;;;16.70;86.47;98632.88;10455538;28;20223;-75
2021/08/01 22:46:51;;;;;;;2.77;2.57;;;;;;;16.70;86.69;98626.56;10454899;28;20171;-74
2021/08/01 22:52:10;;;;;;;2.87;2.67;;;;;;;16.58;86.90;98625.41;10455631;28;20183;-74
2021/08/01 22:57:30;;;;;;;2.70;2.30;;;;;;;16.65;86.47;98622.34;10456021;28;20190;-74
2021/08/01 23:02:57;;;;;;;3.73;2.23;;;;;;;16.66;86.33;98632.25;10453941;28;20285;-73
2021/08/01 23:08:27;;;;;;;2.80;2.60;;;;;;;16.62;86.86;98636.38;10470980;28;20183;-75
2021/08/01 23:13:56;;;;;;;2.33;2.23;;;;;;;16.59;86.85;98637.25;10455579;28;20207;-74
2021/08/01 23:19:24;;;;;;;3.90;2.37;;;;;;;16.67;85.52;98641.34;10453007;28;20215;-74
2021/08/01 23:24:50;;;;;;;2.30;2.10;;;;;;;16.56;86.11;98650.06;10472336;28;20214;-74
2021/08/01 23:30:10;;;;;;;3.10;2.13;;;;;;;16.47;86.55;98652.75;10495359;28;20179;-74
2021/08/01 23:35:30;;;;;;;2.70;2.50;;;;;;;16.52;86.07;98654.94;10495586;28;20178;-74
2021/08/01 23:40:50;;;;;;;2.13;2.03;;;;;;;16.41;86.39;98649.00;10495794;28;20230;-74
2021/08/01 23:46:11;;;;;;;2.30;2.10;;;;;;;16.39;86.61;98656.97;10495280;28;20182;-74
2021/08/01 23:51:45;;;;;;;2.97;2.37;;;;;;;16.43;86.33;98663.22;10496475;28;20224;-74
2021/08/01 23:57:28;;;;;;;2.00;1.90;;;;;;;16.37;86.60;98664.22;10458252;28;20223;-73
